Time;durP1;ratioP1;P1;durP2;ratioP2;P2;SDS_P1;SDS_P2;PMS_P1;PMS_P2;Temp;Humidity;BMP_temperature;BMP_pressure;BME280_temperature;BME280_humidity;BME280_pressure;Samples;Min_cycle;Max_cycle;Signal;HPM_P1;HPM_P2
2021/05/13 00:01:22;;;;;;;0.77;0.30;;;24.50;48.40;;;;;;5018747;28;20022;-47
2021/05/13 00:03:50;;;;;;;0.70;0.20;;;24.60;48.50;;;;;;5011723;28;20041;-43
2021/05/13 00:06:16;;;;;;;1.02;0.35;;;24.60;48.40;;;;;;5017276;28;20033;-41
2021/05/13 00:08:42;;;;;;;1.20;0.28;;;24.60;48.50;;;;;;5003852;28;20048;-42
2021/05/13 00:11:10;;;;;;;0.95;0.50;;;24.50;48.40;;;;;;5017937;28;20040;-43
2021/05/13 00:13:39;;;;;;;0.55;0.30;;;24.50;48.40;;;;;;5015328;28;20026;-43
2021/05/13 00:16:06;;;;;;;0.65;0.30;;;24.50;48.40;;;;;;5022378;28;20060;-40
2021/05/13 00:18:32;;;;;;;0.90;0.40;;;24.50;48.40;;;;;;5012422;28;20026;-43
2021/05/13 00:20:59;;;;;;;0.93;0.30;;;24.50;48.40;;;;;;5008813;28;20022;-39
2021/05/13 00:23:25;;;;;;;0.85;0.30;;;24.50;48.40;;;;;;5016552;28;20112;-45
2021/05/13 00:25:52;;;;;;;0.80;0.30;;;24.50;48.40;;;;;;5016891;28;20025;-45
2021/05/13 00:28:21;;;;;;;1.08;0.30;;;24.50;48.40;;;;;;5027823;28;20071;-43
2021/05/13 00:30:48;;;;;;;0.80;0.40;;;24.50;48.40;;;;;;5022438;28;20033;-41
2021/05/13 00:33:15;;;;;;;0.55;0.20;;;24.50;48.40;;;;;;5014469;28;20084;-41
2021/05/13 00:35:40;;;;;;;1.75;0.20;;;24.50;48.40;;;;;;5008844;28;20030;-42
2021/05/13 00:38:07;;;;;;;1.13;0.20;;;24.50;48.40;;;;;;5006795;28;20100;-43
2021/05/13 00:40:34;;;;;;;0.88;0.20;;;24.50;48.40;;;;;;5022214;28;20035;-48
2021/05/13 00:43:01;;;;;;;0.77;0.20;;;24.40;48.40;;;;;;5022954;28;20494;-43
2021/05/13 00:45:28;;;;;;;1.75;0.40;;;24.40;48.30;;;;;;5009121;28;20539;-42
2021/05/13 00:50:22;;;;;;;1.13;0.30;;;24.40;48.40;;;;;;5015646;28;20021;-42
2021/05/13 00:52:49;;;;;;;1.17;0.40;;;24.40;48.30;;;;;;5021845;28;20506;-46
2021/05/13 00:55:16;;;;;;;0.60;0.50;;;24.40;48.30;;;;;;5016444;28;20101;-43
2021/05/13 00:57:49;;;;;;;0.52;0.20;;;24.40;48.30;;;;;;5017983;28;20057;-45
2021/05/13 01:03:06;;;;;;;0.30;0.10;;;24.40;48.40;;;;;;4987154;28;20491;-41
2021/05/13 01:05:34;;;;;;;0.75;0.30;;;24.40;48.40;;;;;;5012826;28;20491;-43
2021/05/13 01:08:01;;;;;;;0.47;0.20;;;24.40;48.50;;;;;;5009047;28;20073;-44
2021/05/13 01:10:28;;;;;;;0.60;0.20;;;24.40;48.50;;;;;;5016643;28;20022;-43
2021/05/13 01:12:58;;;;;;;0.50;0.20;;;24.30;48.40;;;;;;5017071;28;20483;-41
2021/05/13 01:15:35;;;;;;;2.55;0.50;;;24.40;48.40;;;;;;5018026;28;20033;-44
2021/05/13 01:18:15;;;;;;;0.50;0.30;;;24.40;48.50;;;;;;5014267;28;20064;-45
2021/05/13 01:20:42;;;;;;;0.50;0.30;;;24.30;48.40;;;;;;5012616;28;20034;-43
2021/05/13 01:23:13;;;;;;;0.95;0.40;;;24.30;48.40;;;;;;5028490;28;20047;-46
2021/05/13 01:25:56;;;;;;;0.93;0.30;;;24.30;48.40;;;;;;5010269;28;20044;-43
2021/05/13 01:28:27;;;;;;;0.65;0.22;;;24.30;48.40;;;;;;4985134;28;21245;-45
2021/05/13 01:30:55;;;;;;;0.80;0.20;;;24.30;48.40;;;;;;5008819;28;20033;-42
2021/05/13 01:33:23;;;;;;;0.82;0.32;;;24.30;48.50;;;;;;5015700;28;20044;-43
2021/05/13 01:35:51;;;;;;;0.43;0.20;;;24.30;48.60;;;;;;5010469;28;20029;-44
2021/05/13 01:38:20;;;;;;;0.47;0.30;;;24.30;48.60;;;;;;5012264;28;20101;-48
2021/05/13 01:40:58;;;;;;;1.73;0.35;;;24.30;48.60;;;;;;5026014;28;20475;-44
2021/05/13 01:43:28;;;;;;;1.23;0.40;;;24.30;48.50;;;;;;5016689;28;20121;-47
2021/05/13 01:45:54;;;;;;;0.90;0.30;;;24.30;48.50;;;;;;5027711;28;20030;-47
2021/05/13 01:48:21;;;;;;;0.80;0.30;;;24.30;48.50;;;;;;5012882;28;20044;-46
2021/05/13 01:50:49;;;;;;;1.92;0.30;;;24.30;48.50;;;;;;5016171;28;20097;-46
2021/05/13 01:53:16;;;;;;;1.25;0.30;;;24.30;48.50;;;;;;5024844;28;20033;-45
2021/05/13 01:55:42;;;;;;;0.63;0.25;;;24.30;48.50;;;;;;5013161;28;20653;-46
2021/05/13 01:58:08;;;;;;;0.73;0.20;;;24.30;48.50;;;;;;5022701;28;20140;-48
2021/05/13 02:00:35;;;;;;;0.57;0.30;;;24.30;48.40;;;;;;5005671;28;20026;-46
2021/05/13 02:03:02;;;;;;;0.82;0.40;;;24.30;48.40;;;;;;5012548;28;20524;-45
2021/05/13 02:05:28;;;;;;;1.33;0.28;;;24.30;48.40;;;;;;5013778;28;20033;-45
2021/05/13 02:07:56;;;;;;;0.60;0.35;;;24.30;48.40;;;;;;5010980;28;20109;-44
2021/05/13 02:10:22;;;;;;;0.50;0.20;;;24.30;48.40;;;;;;5069240;22;20370;-74
2021/05/13 02:12:48;;;;;;;3.38;0.30;;;24.30;48.40;;;;;;5051118;28;20027;-74
2021/05/13 02:15:17;;;;;;;1.05;0.20;;;24.20;48.40;;;;;;5051161;28;20375;-74
2021/05/13 02:17:43;;;;;;;0.68;0.20;;;24.20;48.40;;;;;;5032378;28;20025;-75
2021/05/13 02:20:17;;;;;;;0.90;0.30;;;24.20;48.40;;;;;;5025510;28;20103;-74
2021/05/13 02:22:43;;;;;;;1.23;0.30;;;24.20;48.50;;;;;;5029606;28;20028;-74
2021/05/13 02:25:11;;;;;;;0.63;0.30;;;24.20;48.40;;;;;;5046251;28;20429;-75
2021/05/13 02:27:38;;;;;;;3.17;0.30;;;24.20;48.40;;;;;;5027466;28;20104;-74
2021/05/13 02:30:06;;;;;;;0.75;0.40;;;24.10;48.30;;;;;;5047440;28;20080;-73
2021/05/13 02:32:32;;;;;;;0.80;0.17;;;24.20;48.40;;;;;;5040447;28;20029;-73
2021/05/13 02:34:58;;;;;;;1.17;0.30;;;24.20;48.40;;;;;;5029439;28;20300;-74
2021/05/13 02:37:24;;;;;;;0.57;0.20;;;24.20;48.50;;;;;;5049452;28;20051;-74
2021/05/13 02:39:50;;;;;;;0.63;0.40;;;24.20;48.50;;;;;;5031083;28;20025;-73
2021/05/13 02:42:17;;;;;;;0.60;0.20;;;24.20;48.50;;;;;;5018930;28;20029;-74
2021/05/13 02:44:44;;;;;;;0.45;0.30;;;24.10;48.40;;;;;;5047468;28;20033;-74
2021/05/13 02:47:10;;;;;;;1.02;0.30;;;24.10;48.40;;;;;;5011856;28;20041;-73
2021/05/13 02:49:36;;;;;;;0.80;0.20;;;24.10;48.40;;;;;;5030466;28;20033;-74
2021/05/13 02:52:04;;;;;;;0.65;0.20;;;24.20;48.50;;;;;;5042784;28;20025;-75
2021/05/13 02:54:30;;;;;;;2.22;0.35;;;24.10;48.40;;;;;;5047521;28;20029;-74
2021/05/13 02:56:56;;;;;;;0.50;0.20;;;24.10;48.40;;;;;;5023178;28;20542;-74
2021/05/13 02:59:31;;;;;;;1.10;0.20;;;24.10;48.50;;;;;;5049315;28;20083;-74
2021/05/13 03:01:57;;;;;;;0.68;0.30;;;24.10;48.50;;;;;;5045488;28;20045;-74
2021/05/13 03:04:22;;;;;;;1.42;0.45;;;24.10;48.40;;;;;;5043703;28;20494;-75
2021/05/13 03:06:49;;;;;;;0.45;0.22;;;24.20;48.50;;;;;;5045484;28;20045;-73
2021/05/13 03:09:17;;;;;;;0.68;0.20;;;24.10;48.50;;;;;;5027416;28;20135;-73
2021/05/13 03:11:43;;;;;;;1.15;0.30;;;24.10;48.40;;;;;;5048419;28;20032;-74
2021/05/13 03:14:10;;;;;;;1.02;0.20;;;24.10;48.40;;;;;;5048602;28;20082;-74
2021/05/13 03:16:36;;;;;;;0.68;0.20;;;24.10;48.40;;;;;;5048476;28;20032;-74
2021/05/13 03:19:03;;;;;;;0.35;0.13;;;24.20;48.50;;;;;;5049539;28;20021;-73
2021/05/13 03:21:39;;;;;;;0.93;0.30;;;24.10;48.40;;;;;;5030678;28;20552;-74
2021/05/13 03:24:14;;;;;;;0.85;0.30;;;24.10;48.50;;;;;;5034870;28;20031;-74
2021/05/13 03:29:06;;;;;;;1.30;0.20;;;24.10;48.40;;;;;;5041180;28;20025;-74
2021/05/13 03:31:32;;;;;;;1.10;0.40;;;24.00;48.40;;;;;;5027909;28;20112;-74
2021/05/13 03:33:59;;;;;;;2.08;0.30;;;24.10;48.50;;;;;;5033472;28;20021;-74
2021/05/13 03:36:25;;;;;;;0.73;0.20;;;24.10;48.50;;;;;;5033940;28;20056;-74
2021/05/13 03:38:51;;;;;;;0.90;0.20;;;24.10;48.50;;;;;;5043350;28;20488;-74
2021/05/13 03:41:17;;;;;;;3.85;0.30;;;24.00;48.50;;;;;;5035799;28;20020;-75
2021/05/13 03:43:43;;;;;;;0.57;0.22;;;24.00;48.50;;;;;;5033367;28;20039;-75
2021/05/13 03:46:09;;;;;;;0.73;0.28;;;24.00;48.40;;;;;;5048168;28;20076;-74
2021/05/13 03:48:35;;;;;;;0.43;0.20;;;24.00;48.40;;;;;;5053343;28;20528;-76
2021/05/13 03:51:01;;;;;;;0.47;0.20;;;24.10;48.60;;;;;;5049390;28;20224;-75
2021/05/13 03:53:27;;;;;;;0.57;0.20;;;24.00;48.50;;;;;;5056300;28;20025;-75
2021/05/13 03:55:53;;;;;;;0.65;0.30;;;24.00;48.50;;;;;;5040708;28;20166;-75
2021/05/13 03:58:22;;;;;;;2.58;0.20;;;24.00;48.40;;;;;;5047552;28;20082;-74
2021/05/13 04:03:14;;;;;;;0.85;0.40;;;24.00;48.50;;;;;;5044218;28;20100;-75
2021/05/13 04:05:41;;;;;;;0.95;0.20;;;24.00;48.40;;;;;;5051513;28;20044;-75
2021/05/13 04:08:08;;;;;;;0.47;0.20;;;24.00;48.50;;;;;;5047324;28;20049;-75
2021/05/13 04:10:37;;;;;;;0.47;0.20;;;24.00;48.40;;;;;;5043398;28;20111;-74
2021/05/13 04:13:06;;;;;;;0.30;0.20;;;24.00;48.50;;;;;;5050163;28;20428;-75
2021/05/13 04:15:32;;;;;;;0.45;0.13;;;24.00;48.40;;;;;;5031917;28;20035;-75
2021/05/13 04:17:58;;;;;;;0.90;0.30;;;24.00;48.40;;;;;;5043083;28;20490;-73
2021/05/13 04:20:24;;;;;;;1.75;0.20;;;24.00;48.90;;;;;;5044862;28;20017;-75
2021/05/13 04:22:50;;;;;;;0.40;0.20;;;24.00;48.50;;;;;;5029813;28;20558;-75
2021/05/13 04:25:16;;;;;;;1.75;0.20;;;24.00;48.40;;;;;;5047076;28;20102;-76
2021/05/13 04:27:42;;;;;;;0.55;0.20;;;24.00;48.40;;;;;;5042971;28;20025;-75
2021/05/13 04:30:08;;;;;;;2.60;0.20;;;24.00;48.50;;;;;;5034610;28;20029;-75
2021/05/13 04:32:34;;;;;;;0.50;0.20;;;24.00;48.40;;;;;;5039571;28;20033;-75
2021/05/13 04:35:00;;;;;;;0.70;0.20;;;24.00;48.50;;;;;;5054762;28;20835;-76
2021/05/13 04:37:26;;;;;;;1.35;0.22;;;24.00;48.90;;;;;;5047554;28;20029;-75
2021/05/13 04:39:52;;;;;;;0.52;0.30;;;23.90;48.40;;;;;;5047020;28;20033;-74
2021/05/13 04:42:18;;;;;;;0.65;0.20;;;23.90;48.40;;;;;;5043422;28;20047;-75
2021/05/13 04:44:45;;;;;;;1.40;0.30;;;23.90;48.40;;;;;;5047710;28;20493;-74
2021/05/13 04:49:57;;;;;;;0.47;0.20;;;23.90;48.50;;;;;;5023941;28;20350;-74
2021/05/13 04:52:24;;;;;;;0.30;0.10;;;23.90;48.50;;;;;;5021485;28;20517;-74
2021/05/13 04:54:52;;;;;;;1.20;0.30;;;23.90;48.40;;;;;;5042370;28;20028;-75
2021/05/13 04:57:19;;;;;;;0.85;0.20;;;23.90;48.50;;;;;;5049476;28;20036;-74
2021/05/13 04:59:45;;;;;;;0.60;0.20;;;23.90;48.50;;;;;;5026863;28;20572;-74
2021/05/13 05:02:12;;;;;;;0.50;0.20;;;23.90;48.40;;;;;;5024359;28;20061;-75
2021/05/13 05:04:38;;;;;;;0.52;0.10;;;23.90;48.50;;;;;;5046487;28;20017;-75
2021/05/13 05:07:04;;;;;;;0.40;0.20;;;24.00;48.50;;;;;;5036952;28;20029;-74
2021/05/13 05:09:30;;;;;;;0.77;0.30;;;24.00;48.50;;;;;;5025646;28;20037;-74
2021/05/13 05:11:56;;;;;;;1.23;0.10;;;23.90;48.50;;;;;;5041423;28;20025;-75
2021/05/13 05:14:21;;;;;;;0.70;0.20;;;23.90;48.50;;;;;;5047550;28;20443;-74
2021/05/13 05:16:48;;;;;;;0.55;0.20;;;23.90;48.40;;;;;;5043799;28;20017;-74
2021/05/13 05:19:14;;;;;;;0.50;0.20;;;23.90;48.40;;;;;;5041793;28;20082;-74
2021/05/13 05:21:40;;;;;;;0.85;0.20;;;23.90;48.40;;;;;;5027467;28;20017;-74
2021/05/13 05:24:06;;;;;;;0.60;0.22;;;23.90;48.40;;;;;;5047772;28;20222;-73
2021/05/13 05:26:33;;;;;;;0.40;0.30;;;23.90;48.50;;;;;;5046974;28;20075;-73
2021/05/13 05:29:00;;;;;;;2.38;0.20;;;23.90;48.60;;;;;;5042190;28;20036;-73
2021/05/13 05:31:26;;;;;;;0.85;0.30;;;23.90;49.20;;;;;;5050359;28;20059;-74
2021/05/13 05:33:53;;;;;;;1.50;0.20;;;23.90;48.80;;;;;;5036619;28;20029;-74
2021/05/13 05:36:19;;;;;;;0.65;0.20;;;23.80;48.80;;;;;;5052273;28;20497;-74
2021/05/13 05:38:45;;;;;;;1.02;0.30;;;23.90;48.90;;;;;;5034066;28;20024;-74
2021/05/13 05:41:11;;;;;;;0.50;0.10;;;23.90;48.80;;;;;;5026147;28;20032;-75
2021/05/13 05:43:37;;;;;;;0.47;0.20;;;23.90;48.80;;;;;;5031700;28;20029;-74
2021/05/13 05:46:03;;;;;;;0.45;0.20;;;23.90;48.80;;;;;;5051089;28;20029;-73
2021/05/13 05:48:29;;;;;;;0.45;0.20;;;23.90;48.80;;;;;;5032030;28;20263;-75
2021/05/13 05:50:54;;;;;;;0.52;0.20;;;23.90;48.80;;;;;;5036879;28;20051;-74
2021/05/13 05:53:20;;;;;;;2.60;0.20;;;23.90;48.80;;;;;;5045109;28;20112;-74
2021/05/13 05:55:46;;;;;;;2.65;0.38;;;23.90;48.80;;;;;;5029577;28;20031;-75
2021/05/13 05:58:12;;;;;;;1.05;0.20;;;23.90;48.80;;;;;;5036420;28;20080;-75
2021/05/13 06:00:38;;;;;;;0.32;0.20;;;23.90;48.90;;;;;;5037980;28;20078;-75
2021/05/13 06:03:04;;;;;;;3.15;0.60;;;23.90;48.70;;;;;;5031851;28;20124;-74
2021/05/13 06:05:31;;;;;;;1.40;0.40;;;23.90;48.80;;;;;;5027269;28;20029;-74
2021/05/13 06:07:57;;;;;;;1.52;0.70;;;23.80;48.70;;;;;;5034065;28;20033;-74
2021/05/13 06:10:23;;;;;;;1.42;0.70;;;23.80;48.70;;;;;;5041224;28;20076;-75
2021/05/13 06:12:49;;;;;;;1.80;0.77;;;23.80;48.70;;;;;;5020335;28;20053;-75
2021/05/13 06:15:17;;;;;;;4.47;0.93;;;23.80;48.70;;;;;;5028458;28;20064;-73
2021/05/13 06:17:44;;;;;;;2.78;0.63;;;23.80;48.50;;;;;;5006078;28;20075;-72
2021/05/13 06:20:22;;;;;;;5.68;1.10;;;23.80;48.50;;;;;;5026573;28;20540;-73
2021/05/13 06:22:49;;;;;;;1.95;0.73;;;23.80;48.50;;;;;;5048603;28;20040;-74
2021/05/13 06:25:16;;;;;;;2.08;0.77;;;23.80;48.50;;;;;;5044045;28;20036;-74
2021/05/13 06:27:43;;;;;;;2.20;1.20;;;23.80;48.50;;;;;;5032281;28;20032;-74
2021/05/13 06:30:10;;;;;;;2.58;0.90;;;23.80;48.50;;;;;;5042624;28;20128;-74
2021/05/13 06:32:36;;;;;;;2.45;1.25;;;23.80;48.50;;;;;;5028363;28;20112;-75
2021/05/13 06:35:03;;;;;;;1.65;1.45;;;23.90;48.40;;;;;;5045255;28;20108;-73
2021/05/13 06:37:29;;;;;;;2.00;1.00;;;23.90;48.30;;;;;;5046100;28;20214;-74
2021/05/13 06:39:55;;;;;;;3.00;1.38;;;23.90;48.40;;;;;;5033971;28;20030;-76
2021/05/13 06:42:21;;;;;;;2.60;1.42;;;24.00;48.40;;;;;;5035903;28;20490;-74
2021/05/13 06:44:47;;;;;;;1.90;1.48;;;23.90;48.40;;;;;;5048869;28;20036;-75
2021/05/13 06:47:13;;;;;;;2.42;1.33;;;23.90;48.30;;;;;;5025836;28;20553;-77
2021/05/13 06:49:40;;;;;;;1.90;1.55;;;23.90;48.30;;;;;;5041251;28;20040;-74
2021/05/13 06:52:07;;;;;;;2.45;1.42;;;23.90;48.60;;;;;;5028532;28;20029;-75
2021/05/13 06:54:33;;;;;;;2.40;1.85;;;24.00;48.50;;;;;;5017283;28;20053;-75
2021/05/13 06:56:59;;;;;;;2.22;1.45;;;24.00;48.50;;;;;;5028910;28;20108;-73
2021/05/13 06:59:27;;;;;;;1.98;1.40;;;24.00;48.40;;;;;;5049293;28;20547;-73
2021/05/13 07:01:55;;;;;;;2.30;2.08;;;24.00;48.40;;;;;;5048993;28;20029;-74
2021/05/13 07:04:22;;;;;;;3.20;2.20;;;24.00;48.50;;;;;;5025594;28;20097;-76
2021/05/13 07:06:48;;;;;;;2.45;1.27;;;24.00;48.50;;;;;;5030223;28;20049;-75
2021/05/13 07:09:14;;;;;;;2.45;1.40;;;24.10;48.40;;;;;;5035666;28;20040;-74
2021/05/13 07:11:40;;;;;;;2.97;1.60;;;24.10;48.40;;;;;;5036009;28;20044;-72
2021/05/13 07:14:07;;;;;;;4.90;1.85;;;24.10;48.30;;;;;;5030505;28;20025;-74
2021/05/13 07:16:34;;;;;;;2.55;1.48;;;24.20;48.30;;;;;;5046847;28;20025;-73
2021/05/13 07:19:04;;;;;;;3.22;2.80;;;24.10;48.70;;;;;;5029815;28;20477;-75
2021/05/13 07:21:30;;;;;;;3.92;1.88;;;24.10;48.30;;;;;;5031521;28;20406;-75
2021/05/13 07:23:56;;;;;;;1.90;1.00;;;24.10;48.40;;;;;;5048551;28;20028;-73
2021/05/13 07:26:22;;;;;;;3.35;1.67;;;24.10;48.10;;;;;;5051672;28;20486;-74
2021/05/13 07:28:48;;;;;;;1.95;1.20;;;24.10;48.10;;;;;;5056228;28;20040;-74
2021/05/13 07:31:14;;;;;;;4.60;1.48;;;24.20;48.20;;;;;;5029336;28;20128;-74
2021/05/13 07:33:41;;;;;;;0.65;0.30;;;24.20;48.10;;;;;;5026506;28;20492;-80
2021/05/13 07:36:07;;;;;;;3.63;0.98;;;24.30;55.60;;;;;;5050006;28;20292;-74
2021/05/13 07:38:34;;;;;;;1.02;0.65;;;24.40;52.10;;;;;;5052305;28;21686;-74
2021/05/13 07:41:03;;;;;;;1.08;0.60;;;24.30;51.80;;;;;;5023053;28;20171;-75
2021/05/13 07:43:29;;;;;;;2.10;0.50;;;24.30;51.70;;;;;;5025509;28;20112;-73
2021/05/13 07:45:56;;;;;;;0.90;0.32;;;24.40;51.40;;;;;;5043352;28;20021;-72
2021/05/13 07:48:22;;;;;;;1.63;0.60;;;24.40;51.10;;;;;;5038298;28;20025;-79
2021/05/13 07:50:48;;;;;;;3.30;0.57;;;24.40;43.60;;;;;;5047072;28;20025;-76
2021/05/13 07:53:15;;;;;;;2.05;1.10;;;;;;;;;;5063740;28;20021;-79
2021/05/13 07:55:41;;;;;;;1.23;0.50;;;24.90;40.90;;;;;;5067651;28;20389;-78
2021/05/13 07:58:08;;;;;;;1.08;0.50;;;25.20;39.50;;;;;;5061261;28;20107;-76
2021/05/13 08:00:34;;;;;;;1.45;0.40;;;25.60;38.50;;;;;;5028840;28;20025;-73
2021/05/13 08:03:00;;;;;;;2.20;0.70;;;25.20;37.90;;;;;;5032213;28;20091;-75
2021/05/13 08:05:26;;;;;;;0.85;0.65;;;24.80;38.70;;;;;;5062450;28;20293;-73
2021/05/13 08:07:52;;;;;;;;;;;;;;;;;;5028204;28;20431;-74
2021/05/13 08:10:18;;;;;;;;;;;25.80;37.90;;;;;;5020731;28;20055;-73
2021/05/13 08:12:44;;;;;;;;;;;25.10;38.10;;;;;;5036081;28;19915;-74
2021/05/13 08:15:12;;;;;;;;;;;24.80;38.70;;;;;;5022579;28;19921;-74
2021/05/13 08:17:42;;;;;;;1.27;0.80;;;24.60;39.10;;;;;;5031574;28;20430;-75
2021/05/13 08:20:11;;;;;;;0.80;0.75;;;25.00;39.20;;;;;;5028638;28;20114;-74
2021/05/13 08:22:37;;;;;;;1.80;0.75;;;24.80;39.00;;;;;;5048995;28;20027;-73
2021/05/13 08:25:05;;;;;;;2.05;1.10;;;24.80;39.10;;;;;;5033253;28;20435;-75
2021/05/13 08:27:31;;;;;;;1.83;1.15;;;25.00;40.30;;;;;;5039710;28;20481;-76
2021/05/13 08:29:59;;;;;;;1.45;0.82;;;24.80;47.10;;;;;;5050231;28;20025;-72
2021/05/13 08:32:25;;;;;;;2.00;0.80;;;24.80;42.90;;;;;;5048478;28;20031;-73
2021/05/13 08:34:54;;;;;;;;;;;24.80;44.00;;;;;;5030057;28;20344;-75
2021/05/13 08:37:20;;;;;;;;;;;24.70;42.90;;;;;;5041300;28;19978;-73
2021/05/13 08:39:46;;;;;;;;;;;24.70;42.80;;;;;;5013546;28;19909;-75
2021/05/13 08:42:12;;;;;;;;;;;24.80;43.30;;;;;;5011127;28;19909;-73
2021/05/13 08:44:42;;;;;;;;;;;24.80;43.30;;;;;;5025514;28;20213;-72
2021/05/13 08:47:09;;;;;;;;;;;24.80;43.70;;;;;;5037819;28;19913;-73
2021/05/13 08:49:35;;;;;;;;;;;24.80;43.80;;;;;;5046698;28;19963;-73
2021/05/13 08:52:04;;;;;;;;;;;24.70;44.00;;;;;;5026099;28;19920;-75
2021/05/13 08:54:30;;;;;;;;;;;24.70;44.70;;;;;;5046979;28;19934;-74
2021/05/13 08:56:56;;;;;;;;;;;24.70;44.90;;;;;;5010799;28;21805;-73
2021/05/13 08:59:22;;;;;;;;;;;24.70;44.30;;;;;;5031420;28;19962;-73
2021/05/13 09:01:55;;;;;;;;;;;24.70;44.80;;;;;;5018464;28;19912;-74
2021/05/13 09:04:21;;;;;;;;;;;24.80;45.90;;;;;;5014567;28;19915;-74
2021/05/13 09:06:46;;;;;;;;;;;24.80;45.00;;;;;;5018243;28;19917;-75
2021/05/13 09:09:16;;;;;;;;;;;24.90;47.20;;;;;;5015680;28;20658;-73
2021/05/13 09:11:46;;;;;;;;;;;24.90;46.10;;;;;;5020129;28;20042;-73
2021/05/13 09:14:32;;;;;;;;;;;25.00;46.70;;;;;;5038159;28;19923;-74
2021/05/13 09:17:22;;;;;;;;;;;25.00;45.20;;;;;;5037516;28;19916;-75
2021/05/13 09:19:48;;;;;;;;;;;24.90;45.40;;;;;;5034662;28;19917;-74
2021/05/13 09:22:20;;;;;;;;;;;24.90;45.20;;;;;;5036186;28;20377;-75
2021/05/13 09:24:51;;;;;;;;;;;24.90;45.30;;;;;;5020606;28;19917;-74
2021/05/13 09:27:26;;;;;;;;;;;24.80;45.20;;;;;;5014306;28;19909;-74
2021/05/13 09:30:07;;;;;;;;;;;24.80;45.10;;;;;;5033356;28;19967;-74
2021/05/13 09:32:33;;;;;;;;;;;24.80;45.20;;;;;;5043237;28;19912;-74
2021/05/13 09:35:05;;;;;;;;;;;24.80;43.80;;;;;;5036382;28;19916;-75
2021/05/13 09:37:38;;;;;;;;;;;24.80;43.70;;;;;;5042254;28;19962;-74
2021/05/13 09:40:04;;;;;;;;;;;24.80;43.70;;;;;;5004481;28;19909;-74
2021/05/13 09:42:30;;;;;;;;;;;24.80;43.90;;;;;;5019987;28;19940;-74
2021/05/13 09:44:56;;;;;;;;;;;24.80;43.80;;;;;;5033061;28;20373;-75
2021/05/13 09:47:25;;;;;;;;;;;24.80;43.60;;;;;;5044271;28;20320;-73
2021/05/13 09:49:57;;;;;;;;;;;24.80;43.40;;;;;;5041186;28;19913;-75
2021/05/13 09:52:39;;;;;;;;;;;24.90;43.40;;;;;;5035983;28;20011;-74
2021/05/13 09:55:11;;;;;;;;;;;24.90;43.50;;;;;;5038056;28;20281;-74
2021/05/13 09:57:38;;;;;;;;;;;24.90;43.50;;;;;;5017859;28;19909;-74
2021/05/13 10:00:07;;;;;;;;;;;24.90;43.50;;;;;;5022607;28;19908;-75
2021/05/13 10:02:34;;;;;;;;;;;25.00;43.60;;;;;;5018274;28;19913;-74
2021/05/13 10:05:00;;;;;;;;;;;25.00;43.80;;;;;;5036818;28;20110;-74
2021/05/13 10:07:27;;;;;;;;;;;25.00;44.10;;;;;;5040084;28;19909;-74
2021/05/13 10:09:53;;;;;;;;;;;25.00;43.40;;;;;;5025076;28;19962;-73
2021/05/13 10:12:19;;;;;;;;;;;25.00;43.40;;;;;;5044074;28;19909;-75
2021/05/13 10:14:48;;;;;;;;;;;25.00;43.50;;;;;;5035668;28;20392;-75
2021/05/13 10:17:14;;;;;;;;;;;25.00;43.70;;;;;;5021602;28;19913;-76
2021/05/13 10:19:43;;;;;;;;;;;25.00;43.90;;;;;;5043978;28;20625;-77
2021/05/13 10:22:12;;;;;;;;;;;25.00;43.20;;;;;;5028120;28;20408;-77
2021/05/13 10:24:38;;;;;;;;;;;25.00;43.10;;;;;;5039926;28;19916;-76
2021/05/13 10:27:20;;;;;;;;;;;25.00;43.20;;;;;;5021621;28;19912;-76
2021/05/13 10:29:47;;;;;;;;;;;25.00;43.40;;;;;;5021577;28;19912;-76
2021/05/13 10:32:19;;;;;;;;;;;25.00;43.30;;;;;;5036438;28;19943;-76
2021/05/13 10:34:48;;;;;;;;;;;25.00;43.30;;;;;;5036786;28;19912;-77
2021/05/13 10:37:34;;;;;;;;;;;25.00;43.40;;;;;;5034900;28;19912;-77
2021/05/13 10:40:15;;;;;;;;;;;25.00;43.40;;;;;;5036771;28;19909;-77
2021/05/13 10:42:42;;;;;;;;;;;25.00;43.70;;;;;;5047627;28;19908;-76
2021/05/13 10:45:24;;;;;;;;;;;25.00;43.90;;;;;;5002977;28;19917;-74
2021/05/13 10:48:08;;;;;;;;;;;25.00;44.10;;;;;;5032140;28;20007;-73
2021/05/13 10:50:45;;;;;;;;;;;25.00;44.10;;;;;;5022084;28;19917;-75
2021/05/13 10:53:29;;;;;;;;;;;25.00;44.10;;;;;;5018161;28;19955;-75
2021/05/13 10:56:14;;;;;;;;;;;25.00;44.80;;;;;;5035856;28;19982;-75
2021/05/13 10:59:02;;;;;;;;;;;25.00;44.30;;;;;;5042840;28;20293;-74
2021/05/13 11:01:44;;;;;;;1.38;0.90;;;;;;;;;;5037891;28;20431;-77
2021/05/13 11:04:22;;;;;;;1.30;0.63;;;25.50;39.30;;;;;;5040514;28;20502;-76
2021/05/13 11:06:53;;;;;;;1.67;0.85;;;25.40;39.50;;;;;;5046498;28;20033;-77
2021/05/13 11:09:45;;;;;;;0.73;0.45;;;25.30;39.70;;;;;;5032253;28;20025;-75
2021/05/13 11:12:40;;;;;;;1.23;1.00;;;25.60;51.70;;;;;;5043465;28;20036;-74
2021/05/13 11:17:45;;;;;;;2.13;1.45;;;25.50;48.20;;;;;;5025720;28;20022;-80
2021/05/13 11:20:25;;;;;;;7.00;2.15;;;26.10;41.40;;;;;;5029667;28;20426;-83
2021/05/13 11:23:05;;;;;;;3.65;1.67;;;26.80;37.80;;;;;;5044606;28;20032;-75
2021/05/13 11:25:51;;;;;;;3.05;2.15;;;26.00;38.50;;;;;;5029962;28;20431;-76
2021/05/13 11:28:35;;;;;;;5.72;2.10;;;25.70;39.20;;;;;;5031050;28;20499;-76
2021/05/13 11:31:05;;;;;;;2.90;1.65;;;25.40;39.60;;;;;;5015031;28;20116;-76
2021/05/13 11:33:56;;;;;;;2.38;1.58;;;25.30;39.90;;;;;;5017717;28;20491;-77
2021/05/13 11:36:23;;;;;;;1.55;1.45;;;25.30;40.00;;;;;;5047970;28;20047;-78
2021/05/13 11:38:57;;;;;;;0.90;0.50;;;25.30;40.20;;;;;;5008732;28;20469;-77
2021/05/13 11:41:24;;;;;;;1.20;0.85;;;26.00;40.80;;;;;;5060099;22;20543;-52
2021/05/13 11:43:50;;;;;;;4.07;1.92;;;26.30;45.50;;;;;;5028625;28;20928;-54
2021/05/13 11:46:22;;;;;;;4.55;4.15;;;26.50;40.10;;;;;;5029857;28;20439;-52
2021/05/13 11:48:50;;;;;;;14.40;5.88;;;26.50;39.60;;;;;;5026273;28;20427;-53
2021/05/13 11:51:24;;;;;;;58.47;35.15;;;26.60;50.20;;;;;;5012013;28;21254;-57
2021/05/13 11:53:53;;;;;;;;;;;26.60;44.40;;;;;;5020521;28;20426;-51
2021/05/13 11:56:19;;;;;;;26.00;12.70;;;27.00;51.80;;;;;;5020505;28;20433;-51
2021/05/13 11:58:45;;;;;;;14.23;7.03;;;26.30;38.90;;;;;;5015307;28;20084;-53
2021/05/13 12:01:17;;;;;;;16.27;8.38;;;26.50;42.40;;;;;;5015186;28;20416;-47
2021/05/13 12:03:49;;;;;;;19.27;10.02;;;26.60;40.50;;;;;;5027311;28;20863;-49
2021/05/13 12:06:15;;;;;;;20.00;8.55;;;26.40;39.70;;;;;;5016676;28;21004;-48
2021/05/13 12:08:41;;;;;;;12.80;7.28;;;26.00;40.10;;;;;;5004769;28;20095;-48
2021/05/13 12:11:21;;;;;;;18.63;8.15;;;25.90;40.60;;;;;;5029769;28;20036;-47
2021/05/13 12:13:48;;;;;;;16.00;6.90;;;25.70;40.90;;;;;;5023417;28;20727;-48
2021/05/13 12:16:15;;;;;;;14.35;6.75;;;25.70;41.00;;;;;;5022166;28;20509;-48
2021/05/13 12:18:43;;;;;;;19.63;6.55;;;25.60;40.90;;;;;;5016433;28;20021;-49
2021/05/13 12:21:12;;;;;;;11.38;6.00;;;25.60;40.90;;;;;;5021964;28;20398;-47
2021/05/13 12:23:42;;;;;;;12.85;6.40;;;25.60;41.00;;;;;;5002426;28;20446;-44
2021/05/13 12:26:12;;;;;;;8.85;5.43;;;25.50;40.90;;;;;;5016607;28;20028;-49
2021/05/13 12:28:38;;;;;;;8.43;5.00;;;25.50;40.90;;;;;;5017591;28;20406;-49
2021/05/13 12:31:05;;;;;;;12.02;4.95;;;25.50;40.70;;;;;;5024496;28;20102;-48
2021/05/13 12:33:37;;;;;;;9.02;4.60;;;25.50;40.70;;;;;;5021626;28;20021;-47
2021/05/13 12:36:04;;;;;;;10.98;4.07;;;25.50;40.70;;;;;;5017400;28;20100;-47
2021/05/13 12:38:30;;;;;;;9.30;4.57;;;25.50;40.70;;;;;;5026260;28;20086;-47
2021/05/13 12:41:08;;;;;;;9.15;4.50;;;25.50;40.60;;;;;;5015959;28;20033;-48
2021/05/13 12:43:34;;;;;;;7.72;3.97;;;25.40;40.50;;;;;;5019771;28;20024;-48
2021/05/13 12:46:00;;;;;;;5.95;3.10;;;25.50;40.50;;;;;;5016309;28;20444;-48
2021/05/13 12:48:29;;;;;;;6.43;3.70;;;25.50;40.40;;;;;;5017812;28;20026;-48
2021/05/13 12:50:55;;;;;;;7.78;3.05;;;25.50;40.40;;;;;;5030756;28;20085;-48
2021/05/13 12:53:21;;;;;;;6.57;3.65;;;25.50;40.40;;;;;;5033572;28;20056;-50
2021/05/13 12:55:47;;;;;;;5.78;3.00;;;25.50;40.30;;;;;;5023793;28;20498;-47
2021/05/13 12:58:16;;;;;;;10.73;3.95;;;25.50;40.30;;;;;;5013437;28;20033;-49
2021/05/13 13:00:44;;;;;;;6.40;2.88;;;25.50;40.30;;;;;;5016424;28;20022;-46
2021/05/13 13:03:15;;;;;;;3.67;2.53;;;25.60;40.40;;;;;;5023321;28;20490;-46
2021/05/13 13:05:42;;;;;;;4.82;3.13;;;;;;;;;;5021296;28;20521;-51
2021/05/13 13:08:08;;;;;;;6.78;2.88;;;26.00;41.10;;;;;;5026649;28;20548;-54
2021/05/13 13:10:39;;;;;;;3.83;2.25;;;26.70;41.20;;;;;;5022645;28;20494;-52
2021/05/13 13:13:13;;;;;;;4.00;2.95;;;26.60;39.70;;;;;;5024109;28;20032;-52
2021/05/13 13:16:02;;;;;;;5.47;2.65;;;26.20;40.20;;;;;;5017127;28;20045;-53
2021/05/13 13:18:28;;;;;;;3.97;2.35;;;26.00;40.50;;;;;;5022198;28;20064;-52
2021/05/13 13:20:55;;;;;;;4.45;2.30;;;25.90;40.60;;;;;;5031389;28;20367;-52
2021/05/13 13:23:28;;;;;;;3.97;2.28;;;25.80;40.60;;;;;;5029659;28;20525;-53
2021/05/13 13:26:04;;;;;;;2.67;1.77;;;25.80;40.60;;;;;;5031924;28;20044;-53